sensor_id;sensor_type;location;lat;lon;timestamp;P1;durP1;ratioP1;P2;durP2;ratioP2
33952;SDS011;20231;42.710;23.280;2023-01-15T00:01:21;30.65;;;15.50;;
33952;SDS011;20231;42.710;23.280;2023-01-15T00:03:50;26.50;;;14.43;;
33952;SDS011;20231;42.710;23.280;2023-01-15T00:06:16;29.30;;;14.30;;
33952;SDS011;20231;42.710;23.280;2023-01-15T00:08:43;26.55;;;13.82;;
33952;SDS011;20231;42.710;23.280;2023-01-15T00:11:09;26.15;;;14.10;;
33952;SDS011;20231;42.710;23.280;2023-01-15T00:13:34;28.13;;;14.32;;
33952;SDS011;20231;42.710;23.280;2023-01-15T00:16:04;25.10;;;14.32;;
33952;SDS011;20231;42.710;23.280;2023-01-15T00:18:34;26.25;;;14.48;;
33952;SDS011;20231;42.710;23.280;2023-01-15T00:21:01;25.58;;;13.68;;
33952;SDS011;20231;42.710;23.280;2023-01-15T00:23:29;22.65;;;13.40;;
33952;SDS011;20231;42.710;23.280;2023-01-15T00:26:17;25.02;;;14.32;;
33952;SDS011;20231;42.710;23.280;2023-01-15T00:29:02;27.10;;;14.35;;
33952;SDS011;20231;42.710;23.280;2023-01-15T00:31:28;26.85;;;14.90;;
33952;SDS011;20231;42.710;23.280;2023-01-15T00:33:55;26.48;;;14.27;;
33952;SDS011;20231;42.710;23.280;2023-01-15T00:36:21;27.50;;;14.73;;
33952;SDS011;20231;42.710;23.280;2023-01-15T00:38:47;30.63;;;15.30;;
33952;SDS011;20231;42.710;23.280;2023-01-15T00:41:12;30.92;;;15.88;;
33952;SDS011;20231;42.710;23.280;2023-01-15T00:43:38;29.60;;;14.63;;
33952;SDS011;20231;42.710;23.280;2023-01-15T00:46:03;27.83;;;15.52;;
33952;SDS011;20231;42.710;23.280;2023-01-15T00:48:30;25.38;;;14.45;;
33952;SDS011;20231;42.710;23.280;2023-01-15T00:50:55;33.90;;;17.42;;
33952;SDS011;20231;42.710;23.280;2023-01-15T00:53:21;27.38;;;15.18;;
33952;SDS011;20231;42.710;23.280;2023-01-15T00:55:47;29.10;;;15.48;;
33952;SDS011;20231;42.710;23.280;2023-01-15T00:58:12;27.58;;;15.23;;
33952;SDS011;20231;42.710;23.280;2023-01-15T01:00:37;24.48;;;13.70;;
33952;SDS011;20231;42.710;23.280;2023-01-15T01:03:03;25.48;;;13.70;;
33952;SDS011;20231;42.710;23.280;2023-01-15T01:05:29;27.20;;;14.65;;
33952;SDS011;20231;42.710;23.280;2023-01-15T01:07:55;25.45;;;14.05;;
33952;SDS011;20231;42.710;23.280;2023-01-15T01:10:23;23.98;;;13.43;;
33952;SDS011;20231;42.710;23.280;2023-01-15T01:12:48;28.52;;;15.15;;
33952;SDS011;20231;42.710;23.280;2023-01-15T01:15:16;25.05;;;13.77;;
33952;SDS011;20231;42.710;23.280;2023-01-15T01:17:42;22.50;;;13.27;;
33952;SDS011;20231;42.710;23.280;2023-01-15T01:20:07;22.60;;;13.27;;
33952;SDS011;20231;42.710;23.280;2023-01-15T01:22:34;23.15;;;11.85;;
33952;SDS011;20231;42.710;23.280;2023-01-15T01:24:59;22.70;;;13.18;;
33952;SDS011;20231;42.710;23.280;2023-01-15T01:27:25;23.15;;;13.02;;
33952;SDS011;20231;42.710;23.280;2023-01-15T01:29:50;22.67;;;11.95;;
33952;SDS011;20231;42.710;23.280;2023-01-15T01:32:15;22.52;;;12.02;;
33952;SDS011;20231;42.710;23.280;2023-01-15T01:34:41;23.90;;;12.93;;
33952;SDS011;20231;42.710;23.280;2023-01-15T01:37:06;24.25;;;11.32;;
33952;SDS011;20231;42.710;23.280;2023-01-15T01:39:32;22.75;;;11.95;;
33952;SDS011;20231;42.710;23.280;2023-01-15T01:41:57;21.45;;;12.38;;
33952;SDS011;20231;42.710;23.280;2023-01-15T01:46:57;23.52;;;12.30;;
33952;SDS011;20231;42.710;23.280;2023-01-15T01:49:25;24.75;;;13.02;;
33952;SDS011;20231;42.710;23.280;2023-01-15T01:51:53;20.05;;;12.52;;
33952;SDS011;20231;42.710;23.280;2023-01-15T01:54:23;22.75;;;12.45;;
33952;SDS011;20231;42.710;23.280;2023-01-15T01:56:51;21.88;;;12.40;;
33952;SDS011;20231;42.710;23.280;2023-01-15T01:59:17;22.38;;;12.93;;
33952;SDS011;20231;42.710;23.280;2023-01-15T02:01:45;24.85;;;13.93;;
33952;SDS011;20231;42.710;23.280;2023-01-15T02:04:12;20.52;;;12.30;;
33952;SDS011;20231;42.710;23.280;2023-01-15T02:06:39;20.63;;;11.90;;
33952;SDS011;20231;42.710;23.280;2023-01-15T02:09:06;22.55;;;13.52;;
33952;SDS011;20231;42.710;23.280;2023-01-15T02:11:32;22.92;;;12.65;;
33952;SDS011;20231;42.710;23.280;2023-01-15T02:13:59;23.35;;;13.48;;
33952;SDS011;20231;42.710;23.280;2023-01-15T02:27:46;22.98;;;13.63;;
33952;SDS011;20231;42.710;23.280;2023-01-15T02:30:17;23.23;;;13.20;;
33952;SDS011;20231;42.710;23.280;2023-01-15T02:32:53;24.17;;;14.25;;
33952;SDS011;20231;42.710;23.280;2023-01-15T02:35:37;22.63;;;12.55;;
33952;SDS011;20231;42.710;23.280;2023-01-15T02:38:10;20.83;;;12.63;;
33952;SDS011;20231;42.710;23.280;2023-01-15T02:40:39;24.77;;;12.88;;
33952;SDS011;20231;42.710;23.280;2023-01-15T02:43:06;23.15;;;12.02;;
33952;SDS011;20231;42.710;23.280;2023-01-15T02:45:35;22.65;;;13.15;;
33952;SDS011;20231;42.710;23.280;2023-01-15T02:48:05;25.45;;;13.40;;
33952;SDS011;20231;42.710;23.280;2023-01-15T02:50:35;23.40;;;13.13;;
33952;SDS011;20231;42.710;23.280;2023-01-15T02:53:07;24.83;;;14.40;;
33952;SDS011;20231;42.710;23.280;2023-01-15T02:55:38;26.58;;;14.20;;
33952;SDS011;20231;42.710;23.280;2023-01-15T02:58:09;26.42;;;14.43;;
33952;SDS011;20231;42.710;23.280;2023-01-15T03:00:38;25.63;;;13.77;;
33952;SDS011;20231;42.710;23.280;2023-01-15T03:03:09;26.17;;;13.82;;
33952;SDS011;20231;42.710;23.280;2023-01-15T03:05:55;39.10;;;15.27;;
33952;SDS011;20231;42.710;23.280;2023-01-15T03:08:24;29.70;;;14.32;;
33952;SDS011;20231;42.710;23.280;2023-01-15T03:11:07;24.35;;;13.27;;
33952;SDS011;20231;42.710;23.280;2023-01-15T03:13:47;28.67;;;14.48;;
33952;SDS011;20231;42.710;23.280;2023-01-15T03:16:27;26.75;;;14.05;;
33952;SDS011;20231;42.710;23.280;2023-01-15T03:21:56;29.38;;;14.20;;
33952;SDS011;20231;42.710;23.280;2023-01-15T03:27:07;26.52;;;13.40;;
33952;SDS011;20231;42.710;23.280;2023-01-15T03:29:37;26.27;;;14.40;;
33952;SDS011;20231;42.710;23.280;2023-01-15T03:32:06;28.15;;;14.13;;
33952;SDS011;20231;42.710;23.280;2023-01-15T03:34:33;24.80;;;13.77;;
33952;SDS011;20231;42.710;23.280;2023-01-15T03:37:04;27.30;;;14.23;;
33952;SDS011;20231;42.710;23.280;2023-01-15T03:39:29;27.65;;;14.73;;
33952;SDS011;20231;42.710;23.280;2023-01-15T03:42:02;26.42;;;15.07;;
33952;SDS011;20231;42.710;23.280;2023-01-15T03:44:37;28.90;;;14.13;;
33952;SDS011;20231;42.710;23.280;2023-01-15T03:55:24;27.10;;;14.48;;
33952;SDS011;20231;42.710;23.280;2023-01-15T03:57:59;27.42;;;13.60;;
33952;SDS011;20231;42.710;23.280;2023-01-15T04:00:31;27.00;;;14.63;;
33952;SDS011;20231;42.710;23.280;2023-01-15T04:03:01;28.88;;;14.98;;
33952;SDS011;20231;42.710;23.280;2023-01-15T04:05:28;24.30;;;13.27;;
33952;SDS011;20231;42.710;23.280;2023-01-15T04:07:55;26.63;;;14.57;;
33952;SDS011;20231;42.710;23.280;2023-01-15T04:10:22;24.15;;;13.90;;
33952;SDS011;20231;42.710;23.280;2023-01-15T04:12:48;23.95;;;13.75;;
33952;SDS011;20231;42.710;23.280;2023-01-15T04:15:13;25.52;;;13.90;;
33952;SDS011;20231;42.710;23.280;2023-01-15T04:17:40;25.23;;;13.52;;
33952;SDS011;20231;42.710;23.280;2023-01-15T04:20:05;25.33;;;13.32;;
33952;SDS011;20231;42.710;23.280;2023-01-15T04:22:31;24.92;;;13.20;;
33952;SDS011;20231;42.710;23.280;2023-01-15T04:24:57;23.08;;;12.45;;
33952;SDS011;20231;42.710;23.280;2023-01-15T04:27:22;23.60;;;13.80;;
33952;SDS011;20231;42.710;23.280;2023-01-15T04:29:48;24.05;;;13.70;;
33952;SDS011;20231;42.710;23.280;2023-01-15T04:32:13;21.88;;;10.98;;
33952;SDS011;20231;42.710;23.280;2023-01-15T04:34:39;20.77;;;12.20;;
33952;SDS011;20231;42.710;23.280;2023-01-15T04:37:04;18.17;;;10.38;;
33952;SDS011;20231;42.710;23.280;2023-01-15T04:39:30;21.23;;;11.63;;
33952;SDS011;20231;42.710;23.280;2023-01-15T04:41:56;22.45;;;11.45;;
33952;SDS011;20231;42.710;23.280;2023-01-15T04:44:39;22.95;;;11.20;;
33952;SDS011;20231;42.710;23.280;2023-01-15T04:47:05;15.95;;;9.60;;
33952;SDS011;20231;42.710;23.280;2023-01-15T04:49:31;12.75;;;7.72;;
33952;SDS011;20231;42.710;23.280;2023-01-15T04:51:57;16.20;;;9.00;;
33952;SDS011;20231;42.710;23.280;2023-01-15T04:54:23;16.40;;;9.40;;
33952;SDS011;20231;42.710;23.280;2023-01-15T04:56:49;16.65;;;9.43;;
33952;SDS011;20231;42.710;23.280;2023-01-15T04:59:17;20.20;;;9.43;;
33952;SDS011;20231;42.710;23.280;2023-01-15T05:01:44;20.83;;;9.95;;
33952;SDS011;20231;42.710;23.280;2023-01-15T05:04:10;21.05;;;10.63;;
33952;SDS011;20231;42.710;23.280;2023-01-15T05:06:35;17.95;;;9.25;;
33952;SDS011;20231;42.710;23.280;2023-01-15T05:09:02;18.88;;;12.25;;
33952;SDS011;20231;42.710;23.280;2023-01-15T05:11:28;20.63;;;11.10;;
33952;SDS011;20231;42.710;23.280;2023-01-15T05:13:54;20.27;;;11.43;;
33952;SDS011;20231;42.710;23.280;2023-01-15T05:16:22;19.17;;;10.55;;
33952;SDS011;20231;42.710;23.280;2023-01-15T05:18:50;20.77;;;11.40;;
33952;SDS011;20231;42.710;23.280;2023-01-15T05:21:33;17.98;;;10.80;;
33952;SDS011;20231;42.710;23.280;2023-01-15T05:24:01;18.58;;;11.30;;
33952;SDS011;20231;42.710;23.280;2023-01-15T05:26:29;18.02;;;10.63;;
33952;SDS011;20231;42.710;23.280;2023-01-15T05:28:56;23.48;;;11.68;;
33952;SDS011;20231;42.710;23.280;2023-01-15T05:31:24;20.58;;;11.00;;
33952;SDS011;20231;42.710;23.280;2023-01-15T05:33:50;22.52;;;11.93;;
33952;SDS011;20231;42.710;23.280;2023-01-15T05:36:18;20.35;;;11.48;;
33952;SDS011;20231;42.710;23.280;2023-01-15T05:38:45;21.60;;;11.75;;
33952;SDS011;20231;42.710;23.280;2023-01-15T05:41:12;23.40;;;12.95;;
33952;SDS011;20231;42.710;23.280;2023-01-15T05:44:00;22.95;;;12.05;;
33952;SDS011;20231;42.710;23.280;2023-01-15T05:46:28;24.63;;;12.30;;
33952;SDS011;20231;42.710;23.280;2023-01-15T05:48:53;25.48;;;12.75;;
33952;SDS011;20231;42.710;23.280;2023-01-15T05:51:23;27.60;;;12.73;;
33952;SDS011;20231;42.710;23.280;2023-01-15T05:53:48;21.10;;;11.48;;
33952;SDS011;20231;42.710;23.280;2023-01-15T05:56:14;19.65;;;10.93;;
33952;SDS011;20231;42.710;23.280;2023-01-15T05:58:39;21.77;;;13.00;;
33952;SDS011;20231;42.710;23.280;2023-01-15T06:01:08;18.75;;;11.00;;
33952;SDS011;20231;42.710;23.280;2023-01-15T06:03:35;21.67;;;11.98;;
33952;SDS011;20231;42.710;23.280;2023-01-15T06:06:01;20.23;;;11.25;;
33952;SDS011;20231;42.710;23.280;2023-01-15T06:08:27;25.98;;;12.55;;
33952;SDS011;20231;42.710;23.280;2023-01-15T06:10:52;21.70;;;10.52;;
33952;SDS011;20231;42.710;23.280;2023-01-15T06:13:18;18.67;;;10.80;;
33952;SDS011;20231;42.710;23.280;2023-01-15T06:15:43;23.88;;;12.75;;
33952;SDS011;20231;42.710;23.280;2023-01-15T06:18:09;29.08;;;15.07;;
33952;SDS011;20231;42.710;23.280;2023-01-15T06:20:38;17.58;;;9.65;;
33952;SDS011;20231;42.710;23.280;2023-01-15T06:23:05;20.60;;;10.63;;
33952;SDS011;20231;42.710;23.280;2023-01-15T06:25:32;23.67;;;11.00;;
33952;SDS011;20231;42.710;23.280;2023-01-15T06:28:04;26.10;;;13.77;;
33952;SDS011;20231;42.710;23.280;2023-01-15T06:30:31;23.33;;;12.57;;
33952;SDS011;20231;42.710;23.280;2023-01-15T06:32:57;26.13;;;13.75;;
33952;SDS011;20231;42.710;23.280;2023-01-15T06:35:23;22.75;;;12.90;;
33952;SDS011;20231;42.710;23.280;2023-01-15T06:37:48;27.25;;;15.10;;
33952;SDS011;20231;42.710;23.280;2023-01-15T06:40:14;29.52;;;15.30;;
33952;SDS011;20231;42.710;23.280;2023-01-15T06:42:40;27.65;;;15.25;;
33952;SDS011;20231;42.710;23.280;2023-01-15T06:45:24;28.48;;;16.10;;
33952;SDS011;20231;42.710;23.280;2023-01-15T06:48:09;29.92;;;15.32;;
33952;SDS011;20231;42.710;23.280;2023-01-15T06:50:35;22.88;;;14.27;;
33952;SDS011;20231;42.710;23.280;2023-01-15T06:53:00;23.17;;;14.02;;
33952;SDS011;20231;42.710;23.280;2023-01-15T06:55:25;22.52;;;12.45;;
33952;SDS011;20231;42.710;23.280;2023-01-15T06:57:51;24.13;;;13.07;;
33952;SDS011;20231;42.710;23.280;2023-01-15T07:00:16;31.38;;;14.45;;
33952;SDS011;20231;42.710;23.280;2023-01-15T07:02:42;27.95;;;15.07;;
33952;SDS011;20231;42.710;23.280;2023-01-15T07:05:07;80.72;;;44.72;;
33952;SDS011;20231;42.710;23.280;2023-01-15T07:07:33;102.00;;;58.60;;
33952;SDS011;20231;42.710;23.280;2023-01-15T07:09:59;150.57;;;77.40;;
33952;SDS011;20231;42.710;23.280;2023-01-15T07:12:24;151.07;;;80.90;;
33952;SDS011;20231;42.710;23.280;2023-01-15T07:14:50;152.70;;;82.53;;
33952;SDS011;20231;42.710;23.280;2023-01-15T07:17:16;150.95;;;75.82;;
33952;SDS011;20231;42.710;23.280;2023-01-15T07:19:41;137.75;;;70.95;;
33952;SDS011;20231;42.710;23.280;2023-01-15T07:22:07;133.85;;;67.72;;
33952;SDS011;20231;42.710;23.280;2023-01-15T07:24:33;137.75;;;69.35;;
33952;SDS011;20231;42.710;23.280;2023-01-15T07:26:59;136.02;;;71.25;;
33952;SDS011;20231;42.710;23.280;2023-01-15T07:29:25;140.48;;;75.57;;
33952;SDS011;20231;42.710;23.280;2023-01-15T07:31:50;93.72;;;49.17;;
33952;SDS011;20231;42.710;23.280;2023-01-15T07:34:16;80.82;;;43.88;;
33952;SDS011;20231;42.710;23.280;2023-01-15T07:36:41;66.57;;;37.30;;
33952;SDS011;20231;42.710;23.280;2023-01-15T07:39:07;53.22;;;27.30;;
33952;SDS011;20231;42.710;23.280;2023-01-15T07:41:34;51.00;;;25.58;;
33952;SDS011;20231;42.710;23.280;2023-01-15T07:44:18;42.47;;;22.38;;
33952;SDS011;20231;42.710;23.280;2023-01-15T07:47:02;32.28;;;16.48;;
33952;SDS011;20231;42.710;23.280;2023-01-15T07:49:53;26.00;;;14.35;;
33952;SDS011;20231;42.710;23.280;2023-01-15T07:52:21;24.65;;;12.98;;
33952;SDS011;20231;42.710;23.280;2023-01-15T07:54:47;28.05;;;13.35;;
33952;SDS011;20231;42.710;23.280;2023-01-15T07:57:14;26.38;;;14.55;;
33952;SDS011;20231;42.710;23.280;2023-01-15T07:59:43;31.92;;;17.50;;
33952;SDS011;20231;42.710;23.280;2023-01-15T08:02:08;29.10;;;15.95;;
33952;SDS011;20231;42.710;23.280;2023-01-15T08:04:34;32.28;;;16.33;;
33952;SDS011;20231;42.710;23.280;2023-01-15T08:07:00;28.92;;;15.38;;
33952;SDS011;20231;42.710;23.280;2023-01-15T08:09:27;25.23;;;14.35;;
33952;SDS011;20231;42.710;23.280;2023-01-15T08:11:52;28.65;;;14.55;;
33952;SDS011;20231;42.710;23.280;2023-01-15T08:14:37;22.10;;;12.57;;
33952;SDS011;20231;42.710;23.280;2023-01-15T08:17:21;20.85;;;12.73;;
33952;SDS011;20231;42.710;23.280;2023-01-15T08:19:46;21.70;;;12.88;;
33952;SDS011;20231;42.710;23.280;2023-01-15T08:22:11;21.25;;;12.32;;
33952;SDS011;20231;42.710;23.280;2023-01-15T08:24:37;20.77;;;10.48;;
33952;SDS011;20231;42.710;23.280;2023-01-15T08:27:03;20.45;;;11.77;;
33952;SDS011;20231;42.710;23.280;2023-01-15T08:29:29;20.63;;;11.88;;
33952;SDS011;20231;42.710;23.280;2023-01-15T08:31:54;15.55;;;9.15;;
33952;SDS011;20231;42.710;23.280;2023-01-15T08:34:20;18.35;;;10.18;;
33952;SDS011;20231;42.710;23.280;2023-01-15T08:36:45;16.25;;;8.93;;
33952;SDS011;20231;42.710;23.280;2023-01-15T08:39:11;17.80;;;9.88;;
33952;SDS011;20231;42.710;23.280;2023-01-15T08:41:37;14.45;;;9.18;;
33952;SDS011;20231;42.710;23.280;2023-01-15T08:44:02;14.07;;;8.98;;
33952;SDS011;20231;42.710;23.280;2023-01-15T08:46:27;13.15;;;8.48;;
33952;SDS011;20231;42.710;23.280;2023-01-15T08:48:53;15.45;;;8.98;;
33952;SDS011;20231;42.710;23.280;2023-01-15T08:51:18;14.57;;;8.23;;
33952;SDS011;20231;42.710;23.280;2023-01-15T08:53:44;15.20;;;9.43;;
33952;SDS011;20231;42.710;23.280;2023-01-15T08:56:13;16.40;;;10.20;;
33952;SDS011;20231;42.710;23.280;2023-01-15T08:58:40;18.10;;;10.20;;
33952;SDS011;20231;42.710;23.280;2023-01-15T09:01:06;19.83;;;10.25;;
33952;SDS011;20231;42.710;23.280;2023-01-15T09:03:34;15.60;;;9.63;;
33952;SDS011;20231;42.710;23.280;2023-01-15T09:06:00;16.50;;;10.23;;
33952;SDS011;20231;42.710;23.280;2023-01-15T09:08:26;19.40;;;10.48;;
33952;SDS011;20231;42.710;23.280;2023-01-15T09:10:59;17.75;;;10.35;;
33952;SDS011;20231;42.710;23.280;2023-01-15T09:13:26;20.17;;;12.07;;
33952;SDS011;20231;42.710;23.280;2023-01-15T09:15:53;17.27;;;11.35;;
33952;SDS011;20231;42.710;23.280;2023-01-15T09:18:18;21.20;;;12.35;;
33952;SDS011;20231;42.710;23.280;2023-01-15T09:20:45;19.10;;;11.65;;
33952;SDS011;20231;42.710;23.280;2023-01-15T09:23:11;19.85;;;11.43;;
33952;SDS011;20231;42.710;23.280;2023-01-15T09:25:36;16.98;;;10.82;;
33952;SDS011;20231;42.710;23.280;2023-01-15T09:28:01;20.48;;;11.15;;
33952;SDS011;20231;42.710;23.280;2023-01-15T09:30:27;23.17;;;12.13;;
33952;SDS011;20231;42.710;23.280;2023-01-15T09:32:53;21.80;;;12.95;;
33952;SDS011;20231;42.710;23.280;2023-01-15T09:35:19;23.77;;;13.18;;
33952;SDS011;20231;42.710;23.280;2023-01-15T09:37:49;22.38;;;13.50;;
33952;SDS011;20231;42.710;23.280;2023-01-15T09:46:39;23.05;;;13.77;;
33952;SDS011;20231;42.710;23.280;2023-01-15T09:57:26;21.52;;;13.70;;
33952;SDS011;20231;42.710;23.280;2023-01-15T09:59:52;26.48;;;14.10;;
33952;SDS011;20231;42.710;23.280;2023-01-15T10:02:35;29.45;;;14.80;;
33952;SDS011;20231;42.710;23.280;2023-01-15T10:05:18;26.85;;;14.98;;
33952;SDS011;20231;42.710;23.280;2023-01-15T10:10:23;28.60;;;16.02;;
33952;SDS011;20231;42.710;23.280;2023-01-15T10:12:57;27.13;;;15.45;;
33952;SDS011;20231;42.710;23.280;2023-01-15T10:15:34;43.35;;;17.23;;
33952;SDS011;20231;42.710;23.280;2023-01-15T10:18:04;35.95;;;18.75;;
33952;SDS011;20231;42.710;23.280;2023-01-15T10:25:51;37.38;;;19.05;;
33952;SDS011;20231;42.710;23.280;2023-01-15T10:31:22;37.15;;;19.85;;
33952;SDS011;20231;42.710;23.280;2023-01-15T10:34:04;39.03;;;19.80;;
33952;SDS011;20231;42.710;23.280;2023-01-15T10:47:44;33.25;;;18.63;;
33952;SDS011;20231;42.710;23.280;2023-01-15T10:50:15;32.92;;;17.15;;
33952;SDS011;20231;42.710;23.280;2023-01-15T10:52:45;31.00;;;15.35;;
33952;SDS011;20231;42.710;23.280;2023-01-15T10:55:25;26.92;;;14.18;;
33952;SDS011;20231;42.710;23.280;2023-01-15T10:58:08;24.45;;;13.90;;
33952;SDS011;20231;42.710;23.280;2023-01-15T11:00:35;25.80;;;14.10;;
33952;SDS011;20231;42.710;23.280;2023-01-15T11:03:03;32.03;;;14.23;;
33952;SDS011;20231;42.710;23.280;2023-01-15T11:05:32;27.35;;;13.38;;
33952;SDS011;20231;42.710;23.280;2023-01-15T11:08:00;25.52;;;13.48;;
33952;SDS011;20231;42.710;23.280;2023-01-15T11:10:30;25.73;;;14.10;;
33952;SDS011;20231;42.710;23.280;2023-01-15T11:12:57;22.55;;;13.43;;
33952;SDS011;20231;42.710;23.280;2023-01-15T11:15:47;32.45;;;13.02;;
33952;SDS011;20231;42.710;23.280;2023-01-15T11:18:33;26.13;;;12.93;;
33952;SDS011;20231;42.710;23.280;2023-01-15T11:21:21;25.40;;;13.82;;
33952;SDS011;20231;42.710;23.280;2023-01-15T11:23:48;26.05;;;14.98;;
33952;SDS011;20231;42.710;23.280;2023-01-15T11:26:24;23.23;;;14.77;;
33952;SDS011;20231;42.710;23.280;2023-01-15T11:28:55;25.35;;;15.60;;
33952;SDS011;20231;42.710;23.280;2023-01-15T11:31:22;27.92;;;14.95;;
33952;SDS011;20231;42.710;23.280;2023-01-15T11:34:00;25.38;;;15.55;;
33952;SDS011;20231;42.710;23.280;2023-01-15T11:36:28;28.60;;;15.50;;
33952;SDS011;20231;42.710;23.280;2023-01-15T11:38:54;20.17;;;11.23;;
33952;SDS011;20231;42.710;23.280;2023-01-15T11:43:53;25.42;;;13.68;;
33952;SDS011;20231;42.710;23.280;2023-01-15T11:46:40;21.45;;;13.32;;
33952;SDS011;20231;42.710;23.280;2023-01-15T11:49:25;23.05;;;12.93;;
33952;SDS011;20231;42.710;23.280;2023-01-15T11:52:10;26.52;;;13.48;;
33952;SDS011;20231;42.710;23.280;2023-01-15T11:54:41;21.98;;;12.95;;
33952;SDS011;20231;42.710;23.280;2023-01-15T11:57:10;23.42;;;14.00;;
33952;SDS011;20231;42.710;23.280;2023-01-15T11:59:36;23.92;;;12.85;;
33952;SDS011;20231;42.710;23.280;2023-01-15T12:02:44;21.77;;;12.55;;
33952;SDS011;20231;42.710;23.280;2023-01-15T12:05:14;22.48;;;12.43;;
33952;SDS011;20231;42.710;23.280;2023-01-15T12:07:51;29.38;;;12.85;;
33952;SDS011;20231;42.710;23.280;2023-01-15T12:10:23;19.00;;;12.07;;
33952;SDS011;20231;42.710;23.280;2023-01-15T12:13:14;20.30;;;12.75;;
33952;SDS011;20231;42.710;23.280;2023-01-15T12:23:40;25.65;;;12.68;;
33952;SDS011;20231;42.710;23.280;2023-01-15T12:26:33;17.73;;;11.57;;
33952;SDS011;20231;42.710;23.280;2023-01-15T12:29:23;16.00;;;10.60;;
33952;SDS011;20231;42.710;23.280;2023-01-15T12:32:10;21.77;;;10.80;;
33952;SDS011;20231;42.710;23.280;2023-01-15T12:35:01;18.92;;;10.73;;
33952;SDS011;20231;42.710;23.280;2023-01-15T12:37:34;19.63;;;11.57;;
33952;SDS011;20231;42.710;23.280;2023-01-15T12:40:24;18.02;;;11.07;;
33952;SDS011;20231;42.710;23.280;2023-01-15T12:42:54;17.75;;;10.82;;
33952;SDS011;20231;42.710;23.280;2023-01-15T12:45:40;18.90;;;10.77;;
33952;SDS011;20231;42.710;23.280;2023-01-15T12:48:26;16.27;;;10.35;;
33952;SDS011;20231;42.710;23.280;2023-01-15T12:50:55;14.43;;;9.85;;
33952;SDS011;20231;42.710;23.280;2023-01-15T12:54:27;23.58;;;9.57;;
33952;SDS011;20231;42.710;23.280;2023-01-15T12:59:21;14.65;;;10.23;;
33952;SDS011;20231;42.710;23.280;2023-01-15T13:07:03;20.05;;;10.60;;
33952;SDS011;20231;42.710;23.280;2023-01-15T13:09:51;15.20;;;9.50;;
33952;SDS011;20231;42.710;23.280;2023-01-15T13:12:20;18.00;;;10.15;;
33952;SDS011;20231;42.710;23.280;2023-01-15T13:14:46;14.88;;;9.38;;
33952;SDS011;20231;42.710;23.280;2023-01-15T13:20:03;17.75;;;9.43;;
33952;SDS011;20231;42.710;23.280;2023-01-15T13:22:57;15.35;;;9.43;;
33952;SDS011;20231;42.710;23.280;2023-01-15T13:25:39;14.88;;;8.68;;
33952;SDS011;20231;42.710;23.280;2023-01-15T13:28:47;14.60;;;8.98;;
33952;SDS011;20231;42.710;23.280;2023-01-15T13:34:05;19.35;;;9.68;;
33952;SDS011;20231;42.710;23.280;2023-01-15T13:36:37;17.92;;;8.48;;
33952;SDS011;20231;42.710;23.280;2023-01-15T13:39:10;13.93;;;9.23;;
33952;SDS011;20231;42.710;23.280;2023-01-15T13:41:46;17.10;;;9.32;;
33952;SDS011;20231;42.710;23.280;2023-01-15T13:44:43;18.35;;;10.07;;
33952;SDS011;20231;42.710;23.280;2023-01-15T13:47:12;16.13;;;9.48;;
33952;SDS011;20231;42.710;23.280;2023-01-15T13:50:26;18.13;;;8.88;;
33952;SDS011;20231;42.710;23.280;2023-01-15T13:52:38;23.38;;;10.20;;
33952;SDS011;20231;42.710;23.280;2023-01-15T13:57:44;15.18;;;9.38;;
33952;SDS011;20231;42.710;23.280;2023-01-15T14:00:35;18.27;;;10.40;;
33952;SDS011;20231;42.710;23.280;2023-01-15T14:03:22;15.00;;;9.65;;
33952;SDS011;20231;42.710;23.280;2023-01-15T14:05:59;18.45;;;10.63;;
33952;SDS011;20231;42.710;23.280;2023-01-15T14:08:37;16.45;;;9.50;;
33952;SDS011;20231;42.710;23.280;2023-01-15T14:14:27;14.88;;;9.82;;
33952;SDS011;20231;42.710;23.280;2023-01-15T14:17:36;15.48;;;9.82;;
33952;SDS011;20231;42.710;23.280;2023-01-15T14:25:53;16.88;;;10.13;;
33952;SDS011;20231;42.710;23.280;2023-01-15T14:28:33;17.88;;;10.63;;
33952;SDS011;20231;42.710;23.280;2023-01-15T14:34:21;17.75;;;9.93;;
33952;SDS011;20231;42.710;23.280;2023-01-15T14:42:27;17.35;;;10.23;;
33952;SDS011;20231;42.710;23.280;2023-01-15T14:47:46;15.57;;;9.85;;
33952;SDS011;20231;42.710;23.280;2023-01-15T14:52:53;15.68;;;9.70;;
33952;SDS011;20231;42.710;23.280;2023-01-15T14:55:23;19.45;;;10.50;;
33952;SDS011;20231;42.710;23.280;2023-01-15T14:57:59;15.63;;;9.80;;
33952;SDS011;20231;42.710;23.280;2023-01-15T15:00:30;17.35;;;10.88;;
33952;SDS011;20231;42.710;23.280;2023-01-15T15:03:00;18.95;;;10.85;;
33952;SDS011;20231;42.710;23.280;2023-01-15T15:05:28;20.55;;;11.88;;
33952;SDS011;20231;42.710;23.280;2023-01-15T15:07:57;20.55;;;11.98;;
33952;SDS011;20231;42.710;23.280;2023-01-15T15:10:30;20.02;;;11.85;;
33952;SDS011;20231;42.710;23.280;2023-01-15T15:13:15;18.42;;;11.55;;
33952;SDS011;20231;42.710;23.280;2023-01-15T15:16:11;17.08;;;12.45;;
33952;SDS011;20231;42.710;23.280;2023-01-15T15:19:06;19.98;;;12.98;;
33952;SDS011;20231;42.710;23.280;2023-01-15T15:21:39;22.25;;;13.13;;
33952;SDS011;20231;42.710;23.280;2023-01-15T15:26:56;24.15;;;13.00;;
33952;SDS011;20231;42.710;23.280;2023-01-15T15:29:37;26.13;;;13.20;;
33952;SDS011;20231;42.710;23.280;2023-01-15T15:32:03;24.55;;;13.88;;
33952;SDS011;20231;42.710;23.280;2023-01-15T15:34:30;24.63;;;14.45;;
33952;SDS011;20231;42.710;23.280;2023-01-15T15:37:04;26.35;;;13.90;;
33952;SDS011;20231;42.710;23.280;2023-01-15T15:39:43;24.05;;;14.10;;
33952;SDS011;20231;42.710;23.280;2023-01-15T15:42:18;24.33;;;13.88;;
33952;SDS011;20231;42.710;23.280;2023-01-15T15:45:06;26.08;;;14.82;;
33952;SDS011;20231;42.710;23.280;2023-01-15T15:48:12;26.23;;;14.20;;
33952;SDS011;20231;42.710;23.280;2023-01-15T15:51:30;28.15;;;15.52;;
33952;SDS011;20231;42.710;23.280;2023-01-15T15:54:01;25.55;;;15.68;;
33952;SDS011;20231;42.710;23.280;2023-01-15T15:56:47;25.35;;;15.38;;
33952;SDS011;20231;42.710;23.280;2023-01-15T16:01:53;28.65;;;16.13;;
33952;SDS011;20231;42.710;23.280;2023-01-15T16:04:20;29.73;;;16.73;;
33952;SDS011;20231;42.710;23.280;2023-01-15T16:06:46;26.27;;;16.17;;
33952;SDS011;20231;42.710;23.280;2023-01-15T16:09:13;32.60;;;18.05;;
33952;SDS011;20231;42.710;23.280;2023-01-15T16:11:38;27.67;;;16.85;;
33952;SDS011;20231;42.710;23.280;2023-01-15T16:14:05;34.15;;;19.02;;
33952;SDS011;20231;42.710;23.280;2023-01-15T16:16:36;34.15;;;19.15;;
33952;SDS011;20231;42.710;23.280;2023-01-15T16:19:02;33.03;;;19.23;;
33952;SDS011;20231;42.710;23.280;2023-01-15T16:21:30;35.33;;;19.50;;
33952;SDS011;20231;42.710;23.280;2023-01-15T16:24:02;32.67;;;18.70;;
33952;SDS011;20231;42.710;23.280;2023-01-15T16:28:59;44.30;;;20.67;;
33952;SDS011;20231;42.710;23.280;2023-01-15T16:31:35;37.00;;;20.35;;
33952;SDS011;20231;42.710;23.280;2023-01-15T16:34:02;34.35;;;20.13;;
33952;SDS011;20231;42.710;23.280;2023-01-15T16:36:36;33.47;;;18.67;;